»·PEaware :: N112PZ MMML-MMTJ

N112PZ :: MMML-MMTJ

FLIGHT INFORMATION

Flight Status: Arrived
Operator: Privately registered:
United States
More flights under this callsign
Pilot: Chris O. (30024)
Aircraft: CIRRUS VISIONJET
(SF50)
More flights by this aircraft type
Origin: MMML Gen Rodolfo Sanchez Taboada
Mexico
Destination: MMTJ Gen Abelardo L Rodriguez Intl
Mexico
More flights between these airports :: More routes between these airports
Route: URSIX SEVRA ULDUD TUBUS OBIME
File this flight plan on PilotEdge
Remarks: RMK / SIMBRIEF
Altitude:
(Current/Filed)
22,000ft
Speed:
(Current/Filed)
465kts
Departed: 25-Jun-20 06:12 AM
Arrived: 25-Jun-20 07:30 AM
Distance/Time
Traveled:
88nm/1:17
Distance/Time
To Go:
Arrived

Flight Plot

Page will automatically refresh every two minutes.

Flight plan parsing failed; only flown route is shown


Map Options




Map Legend


Flown Route
Filed Route
Departure Airport
Arrival Airport
Navaid (VOR, NDB)
Fix

Horizontal Profiles

Position Reports

Time Latitude Longitude Heading Altitude Ground
Speed
25-Jun-20 06:10 32.626152 -115.232364 120 63ft 36kts
25-Jun-20 06:11 32.632258 -115.245468 298 177ft 133kts
25-Jun-20 06:12 32.636380 -115.257392 272 934ft 122kts
25-Jun-20 06:13 32.636380 -115.257392 272 934ft 122kts
25-Jun-20 06:14 32.636380 -115.257392 272 934ft 122kts
25-Jun-20 06:15 32.636380 -115.257392 272 934ft 122kts
25-Jun-20 06:16 32.636380 -115.257392 272 934ft 122kts
25-Jun-20 06:17 32.636380 -115.257392 272 934ft 122kts
25-Jun-20 06:18 32.636380 -115.257392 272 934ft 122kts
25-Jun-20 06:19 32.636380 -115.257392 272 934ft 122kts
25-Jun-20 06:20 32.636380 -115.257392 272 934ft 122kts
25-Jun-20 06:21 32.636380 -115.257392 272 934ft 122kts
25-Jun-20 06:22 32.636380 -115.257392 272 934ft 122kts
25-Jun-20 06:23 32.636380 -115.257392 272 934ft 122kts
25-Jun-20 06:24 32.636380 -115.257392 272 934ft 122kts
25-Jun-20 06:25 32.636380 -115.257392 272 934ft 122kts
25-Jun-20 06:26 32.636380 -115.257392 272 934ft 122kts
25-Jun-20 06:27 32.636380 -115.257392 272 934ft 122kts
25-Jun-20 06:28 32.636380 -115.257392 272 934ft 122kts
25-Jun-20 06:29 32.636380 -115.257392 272 934ft 122kts
25-Jun-20 06:30 32.636380 -115.257392 272 934ft 122kts
25-Jun-20 06:31 32.636380 -115.257392 272 934ft 122kts
25-Jun-20 06:32 32.636380 -115.257392 272 934ft 122kts
25-Jun-20 06:33 32.636380 -115.257392 272 934ft 122kts
25-Jun-20 06:34 32.636380 -115.257392 272 934ft 122kts
25-Jun-20 06:35 32.636380 -115.257392 272 934ft 122kts
25-Jun-20 06:36 32.636380 -115.257392 272 934ft 122kts
25-Jun-20 06:37 32.635794 -115.281817 269 1719ft 156kts
25-Jun-20 06:38 32.633391 -115.335121 265 3328ft 157kts
25-Jun-20 06:39 32.630696 -115.373064 265 4982ft 99kts
25-Jun-20 06:40 32.628244 -115.405804 265 6222ft 114kts
25-Jun-20 06:41 32.624068 -115.463288 265 6221ft 219kts
25-Jun-20 06:42 32.618540 -115.540758 265 6141ft 245kts
25-Jun-20 06:43 32.612764 -115.621966 265 6059ft 249kts
25-Jun-20 06:44 32.606976 -115.703484 265 5991ft 249kts
25-Jun-20 06:45 32.601183 -115.785290 265 5990ft 248kts
25-Jun-20 06:46 32.595433 -115.866750 265 5990ft 248kts
25-Jun-20 06:47 32.589700 -115.948245 265 5990ft 248kts
25-Jun-20 06:48 32.583987 -116.029725 265 5990ft 248kts
25-Jun-20 06:49 32.578317 -116.110853 265 5989ft 239kts
25-Jun-20 06:50 32.573270 -116.182865 265 5998ft 206kts
25-Jun-20 06:51 32.568569 -116.249044 265 6048ft 198kts
25-Jun-20 06:52 32.563932 -116.313831 265 6095ft 195kts
25-Jun-20 06:53 32.552467 -116.373484 208 6140ft 176kts
25-Jun-20 06:54 32.510294 -116.380102 186 6144ft 136kts
25-Jun-20 06:55 32.476104 -116.383626 186 6147ft 112kts
25-Jun-20 06:56 32.448027 -116.386358 186 6081ft 92kts
25-Jun-20 06:57 32.422561 -116.385017 138 5686ft 107kts
25-Jun-20 06:58 32.419414 -116.371628 193 5051ft 112kts
25-Jun-20 06:59 32.419414 -116.371628 193 5051ft 112kts
25-Jun-20 07:00 32.408048 -116.361813 28 5508ft 104kts
25-Jun-20 07:01 32.411961 -116.323065 155 5634ft 214kts
25-Jun-20 07:02 32.349889 -116.333774 226 5618ft 242kts
25-Jun-20 07:03 32.351242 -116.410765 281 5674ft 244kts
25-Jun-20 07:04 32.364642 -116.489618 281 5676ft 245kts
25-Jun-20 07:05 32.365807 -116.570036 266 5676ft 246kts
25-Jun-20 07:06 32.361781 -116.650758 270 5675ft 246kts
25-Jun-20 07:07 32.363349 -116.731809 271 5710ft 246kts
25-Jun-20 07:08 32.365220 -116.813413 271 5713ft 249kts
25-Jun-20 07:09 32.363290 -116.895406 266 5712ft 249kts
25-Jun-20 07:10 32.359141 -116.977178 266 5703ft 247kts
25-Jun-20 07:11 32.355011 -117.058050 266 5693ft 245kts
25-Jun-20 07:12 32.369867 -117.131198 320 5687ft 245kts
25-Jun-20 07:13 32.423847 -117.180608 321 5685ft 245kts
25-Jun-20 07:14 32.477935 -117.229998 321 5685ft 245kts
25-Jun-20 07:15 32.529888 -117.277250 321 5675ft 202kts
25-Jun-20 07:16 32.571512 -117.306006 7 5734ft 155kts
25-Jun-20 07:17 32.581788 -117.272070 126 5680ft 134kts
25-Jun-20 07:18 32.570800 -117.230708 98 5682ft 133kts
25-Jun-20 07:19 32.566040 -117.187300 98 5683ft 132kts
25-Jun-20 07:20 32.562477 -117.155834 98 5684ft 133kts
25-Jun-20 07:21 32.562477 -117.155834 98 5684ft 133kts
25-Jun-20 07:22 32.562477 -117.155834 98 5684ft 133kts
25-Jun-20 07:24 32.561760 -117.149619 98 5684ft 133kts
25-Jun-20 07:25 32.558723 -117.110389 94 4230ft 105kts
25-Jun-20 07:26 32.554993 -117.074978 99 2097ft 105kts
25-Jun-20 07:27 32.551882 -117.042389 102 697ft 94kts
25-Jun-20 07:28 32.546588 -117.011511 100 888ft 96kts
25-Jun-20 07:29 32.542884 -116.983650 96 496ft 71kts
25-Jun-20 07:30 32.543998 -116.977881 1 492ft 11kts
25-Jun-20 07:31 32.545838 -116.978002 10 492ft 2kts
25-Jun-20 07:32 32.545860 -116.977998 9 492ft 0kts
25-Jun-20 07:33 32.545860 -116.977998 9 492ft 0kts
25-Jun-20 07:34 32.545860 -116.977998 9 492ft 0kts
25-Jun-20 07:35 32.545860 -116.977998 9 492ft 0kts
25-Jun-20 07:36 32.545860 -116.977998 9 492ft 0kts
25-Jun-20 07:37 32.545860 -116.977998 9 492ft 0kts
25-Jun-20 07:38 32.545860 -116.977998 9 492ft 0kts
25-Jun-20 07:38 32.545860 -116.977998 9 492ft 0kts
25-Jun-20 07:40 32.545860 -116.977998 9 492ft 0kts
25-Jun-20 07:41 32.545860 -116.977998 9 492ft 0kts
25-Jun-20 07:42 32.545860 -116.977998 9 492ft 0kts
25-Jun-20 07:43 32.545860 -116.977998 9 492ft 0kts
25-Jun-20 07:43 32.545860 -116.977998 9 492ft 0kts

Navigation Log

Ident Type
Flight plan parsing failed, navigation log unavailable